sensor_id;sensor_type;location;lat;lon;timestamp;P1;durP1;ratioP1;P2;durP2;ratioP2
53034;SDS011;38923;53.236;6.506;2022-11-11T00:00:27;15.32;;;6.63;;
53034;SDS011;38923;53.236;6.506;2022-11-11T00:02:56;17.08;;;7.25;;
53034;SDS011;38923;53.236;6.506;2022-11-11T00:05:23;17.75;;;7.50;;
53034;SDS011;38923;53.236;6.506;2022-11-11T00:07:53;13.95;;;6.78;;
53034;SDS011;38923;53.236;6.506;2022-11-11T00:10:27;17.48;;;7.65;;
53034;SDS011;38923;53.236;6.506;2022-11-11T00:13:00;13.30;;;7.82;;
53034;SDS011;38923;53.236;6.506;2022-11-11T00:15:28;18.55;;;7.70;;
53034;SDS011;38923;53.236;6.506;2022-11-11T00:17:54;18.10;;;8.25;;
53034;SDS011;38923;53.236;6.506;2022-11-11T00:20:38;20.35;;;8.40;;
53034;SDS011;38923;53.236;6.506;2022-11-11T00:23:24;17.65;;;8.15;;
53034;SDS011;38923;53.236;6.506;2022-11-11T00:26:22;19.10;;;7.93;;
53034;SDS011;38923;53.236;6.506;2022-11-11T00:28:51;16.60;;;8.00;;
53034;SDS011;38923;53.236;6.506;2022-11-11T00:31:17;19.30;;;8.82;;
53034;SDS011;38923;53.236;6.506;2022-11-11T00:33:43;19.05;;;8.48;;
53034;SDS011;38923;53.236;6.506;2022-11-11T00:36:08;17.08;;;8.77;;
53034;SDS011;38923;53.236;6.506;2022-11-11T00:38:34;20.27;;;8.55;;
53034;SDS011;38923;53.236;6.506;2022-11-11T00:41:20;20.20;;;8.80;;
53034;SDS011;38923;53.236;6.506;2022-11-11T00:43:47;20.10;;;8.77;;
53034;SDS011;38923;53.236;6.506;2022-11-11T00:46:14;20.35;;;8.82;;
53034;SDS011;38923;53.236;6.506;2022-11-11T00:48:59;18.88;;;9.02;;
53034;SDS011;38923;53.236;6.506;2022-11-11T00:51:43;18.77;;;8.57;;
53034;SDS011;38923;53.236;6.506;2022-11-11T00:54:09;14.55;;;8.48;;
53034;SDS011;38923;53.236;6.506;2022-11-11T00:56:36;17.20;;;8.32;;
53034;SDS011;38923;53.236;6.506;2022-11-11T00:59:03;17.10;;;9.25;;
53034;SDS011;38923;53.236;6.506;2022-11-11T01:01:33;19.17;;;8.43;;
53034;SDS011;38923;53.236;6.506;2022-11-11T01:03:59;19.52;;;8.48;;
53034;SDS011;38923;53.236;6.506;2022-11-11T01:06:25;14.52;;;7.80;;
53034;SDS011;38923;53.236;6.506;2022-11-11T01:08:51;17.55;;;8.25;;
53034;SDS011;38923;53.236;6.506;2022-11-11T01:11:18;18.60;;;8.35;;
53034;SDS011;38923;53.236;6.506;2022-11-11T01:13:45;16.35;;;8.07;;
53034;SDS011;38923;53.236;6.506;2022-11-11T01:16:12;21.10;;;8.80;;
53034;SDS011;38923;53.236;6.506;2022-11-11T01:18:43;18.08;;;9.13;;
53034;SDS011;38923;53.236;6.506;2022-11-11T01:21:10;20.08;;;9.63;;
53034;SDS011;38923;53.236;6.506;2022-11-11T01:23:41;20.80;;;9.88;;
53034;SDS011;38923;53.236;6.506;2022-11-11T01:26:14;15.95;;;8.45;;
53034;SDS011;38923;53.236;6.506;2022-11-11T01:28:47;18.50;;;9.68;;
53034;SDS011;38923;53.236;6.506;2022-11-11T01:31:14;17.25;;;8.75;;
53034;SDS011;38923;53.236;6.506;2022-11-11T01:33:40;18.25;;;10.07;;
53034;SDS011;38923;53.236;6.506;2022-11-11T01:36:09;20.50;;;9.57;;
53034;SDS011;38923;53.236;6.506;2022-11-11T01:38:37;17.95;;;9.80;;
53034;SDS011;38923;53.236;6.506;2022-11-11T01:41:05;21.52;;;9.25;;
53034;SDS011;38923;53.236;6.506;2022-11-11T01:43:50;19.23;;;9.48;;
53034;SDS011;38923;53.236;6.506;2022-11-11T01:46:17;18.02;;;9.02;;
53034;SDS011;38923;53.236;6.506;2022-11-11T01:48:50;18.45;;;8.52;;
53034;SDS011;38923;53.236;6.506;2022-11-11T01:54:25;20.38;;;9.70;;
53034;SDS011;38923;53.236;6.506;2022-11-11T01:57:43;21.92;;;9.45;;
53034;SDS011;38923;53.236;6.506;2022-11-11T01:59:43;22.42;;;10.75;;
53034;SDS011;38923;53.236;6.506;2022-11-11T02:02:14;25.00;;;9.70;;
53034;SDS011;38923;53.236;6.506;2022-11-11T02:04:45;16.38;;;9.63;;
53034;SDS011;38923;53.236;6.506;2022-11-11T02:07:31;15.48;;;9.20;;
53034;SDS011;38923;53.236;6.506;2022-11-11T02:09:59;18.67;;;9.88;;
53034;SDS011;38923;53.236;6.506;2022-11-11T02:12:27;14.80;;;9.25;;
53034;SDS011;38923;53.236;6.506;2022-11-11T02:15:11;20.73;;;9.35;;
53034;SDS011;38923;53.236;6.506;2022-11-11T02:17:37;19.67;;;9.85;;
53034;SDS011;38923;53.236;6.506;2022-11-11T02:20:04;21.80;;;10.38;;
53034;SDS011;38923;53.236;6.506;2022-11-11T02:22:41;24.52;;;10.20;;
53034;SDS011;38923;53.236;6.506;2022-11-11T02:25:16;18.42;;;9.70;;
53034;SDS011;38923;53.236;6.506;2022-11-11T02:27:45;19.77;;;9.93;;
53034;SDS011;38923;53.236;6.506;2022-11-11T02:30:15;22.23;;;9.60;;
53034;SDS011;38923;53.236;6.506;2022-11-11T02:32:42;20.80;;;9.85;;
53034;SDS011;38923;53.236;6.506;2022-11-11T02:35:32;16.20;;;9.77;;
53034;SDS011;38923;53.236;6.506;2022-11-11T02:37:56;20.17;;;9.40;;
53034;SDS011;38923;53.236;6.506;2022-11-11T02:40:24;15.80;;;10.13;;
53034;SDS011;38923;53.236;6.506;2022-11-11T02:43:00;21.48;;;10.30;;
53034;SDS011;38923;53.236;6.506;2022-11-11T02:45:26;19.95;;;10.77;;
53034;SDS011;38923;53.236;6.506;2022-11-11T02:47:51;20.83;;;11.18;;
53034;SDS011;38923;53.236;6.506;2022-11-11T02:50:17;19.55;;;11.43;;
53034;SDS011;38923;53.236;6.506;2022-11-11T02:52:43;26.63;;;11.82;;
53034;SDS011;38923;53.236;6.506;2022-11-11T02:55:09;19.73;;;10.35;;
53034;SDS011;38923;53.236;6.506;2022-11-11T02:57:34;20.50;;;11.20;;
53034;SDS011;38923;53.236;6.506;2022-11-11T03:00:01;24.48;;;12.55;;
53034;SDS011;38923;53.236;6.506;2022-11-11T03:02:28;23.02;;;11.90;;
53034;SDS011;38923;53.236;6.506;2022-11-11T03:04:55;21.30;;;12.95;;
53034;SDS011;38923;53.236;6.506;2022-11-11T03:07:21;26.48;;;13.27;;
53034;SDS011;38923;53.236;6.506;2022-11-11T03:09:48;26.65;;;13.45;;
53034;SDS011;38923;53.236;6.506;2022-11-11T03:12:15;22.10;;;13.88;;
53034;SDS011;38923;53.236;6.506;2022-11-11T03:14:41;24.63;;;14.48;;
53034;SDS011;38923;53.236;6.506;2022-11-11T03:17:07;25.65;;;14.30;;
53034;SDS011;38923;53.236;6.506;2022-11-11T03:19:52;24.98;;;14.75;;
53034;SDS011;38923;53.236;6.506;2022-11-11T03:22:37;25.70;;;15.15;;
53034;SDS011;38923;53.236;6.506;2022-11-11T03:25:03;27.90;;;15.77;;
53034;SDS011;38923;53.236;6.506;2022-11-11T03:27:47;30.33;;;15.30;;
53034;SDS011;38923;53.236;6.506;2022-11-11T03:30:13;27.10;;;16.02;;
53034;SDS011;38923;53.236;6.506;2022-11-11T03:32:39;29.98;;;15.32;;
53034;SDS011;38923;53.236;6.506;2022-11-11T03:35:04;26.80;;;15.63;;
53034;SDS011;38923;53.236;6.506;2022-11-11T03:37:30;28.08;;;16.33;;
53034;SDS011;38923;53.236;6.506;2022-11-11T03:40:14;30.38;;;16.73;;
53034;SDS011;38923;53.236;6.506;2022-11-11T03:42:40;26.73;;;16.33;;
53034;SDS011;38923;53.236;6.506;2022-11-11T03:45:08;23.98;;;16.48;;
53034;SDS011;38923;53.236;6.506;2022-11-11T03:47:33;28.70;;;17.15;;
53034;SDS011;38923;53.236;6.506;2022-11-11T03:49:59;29.98;;;16.98;;
53034;SDS011;38923;53.236;6.506;2022-11-11T03:52:25;30.88;;;17.85;;
53034;SDS011;38923;53.236;6.506;2022-11-11T03:54:50;29.08;;;16.70;;
53034;SDS011;38923;53.236;6.506;2022-11-11T03:57:16;29.48;;;17.83;;
53034;SDS011;38923;53.236;6.506;2022-11-11T03:59:56;27.48;;;17.52;;
53034;SDS011;38923;53.236;6.506;2022-11-11T04:02:22;28.58;;;17.88;;
53034;SDS011;38923;53.236;6.506;2022-11-11T04:05:07;35.22;;;17.60;;
53034;SDS011;38923;53.236;6.506;2022-11-11T04:07:52;32.53;;;18.23;;
53034;SDS011;38923;53.236;6.506;2022-11-11T04:10:36;27.77;;;18.20;;
53034;SDS011;38923;53.236;6.506;2022-11-11T04:13:02;30.63;;;18.63;;
53034;SDS011;38923;53.236;6.506;2022-11-11T04:15:47;33.72;;;18.58;;
53034;SDS011;38923;53.236;6.506;2022-11-11T04:18:31;32.15;;;18.23;;
53034;SDS011;38923;53.236;6.506;2022-11-11T04:21:19;31.67;;;19.13;;
53034;SDS011;38923;53.236;6.506;2022-11-11T04:24:05;32.38;;;18.52;;
53034;SDS011;38923;53.236;6.506;2022-11-11T04:26:55;30.40;;;19.27;;
53034;SDS011;38923;53.236;6.506;2022-11-11T04:29:22;34.60;;;20.30;;
53034;SDS011;38923;53.236;6.506;2022-11-11T04:34:46;32.13;;;19.83;;
53034;SDS011;38923;53.236;6.506;2022-11-11T04:37:14;33.35;;;20.10;;
53034;SDS011;38923;53.236;6.506;2022-11-11T04:39:41;33.72;;;19.48;;
53034;SDS011;38923;53.236;6.506;2022-11-11T04:42:25;32.28;;;18.50;;
53034;SDS011;38923;53.236;6.506;2022-11-11T04:44:52;36.95;;;18.55;;
53034;SDS011;38923;53.236;6.506;2022-11-11T04:47:36;38.35;;;19.77;;
53034;SDS011;38923;53.236;6.506;2022-11-11T04:50:02;34.92;;;21.10;;
53034;SDS011;38923;53.236;6.506;2022-11-11T04:52:29;30.10;;;19.88;;
53034;SDS011;38923;53.236;6.506;2022-11-11T04:54:56;30.85;;;19.95;;
53034;SDS011;38923;53.236;6.506;2022-11-11T04:57:42;34.50;;;20.70;;
53034;SDS011;38923;53.236;6.506;2022-11-11T05:00:10;28.90;;;18.88;;
53034;SDS011;38923;53.236;6.506;2022-11-11T05:02:38;34.55;;;20.67;;
53034;SDS011;38923;53.236;6.506;2022-11-11T05:05:22;34.88;;;21.27;;
53034;SDS011;38923;53.236;6.506;2022-11-11T05:07:48;37.47;;;21.17;;
53034;SDS011;38923;53.236;6.506;2022-11-11T05:10:33;38.05;;;21.05;;
53034;SDS011;38923;53.236;6.506;2022-11-11T05:12:59;36.22;;;20.85;;
53034;SDS011;38923;53.236;6.506;2022-11-11T05:15:43;35.80;;;21.00;;
53034;SDS011;38923;53.236;6.506;2022-11-11T05:18:47;33.60;;;21.35;;
53034;SDS011;38923;53.236;6.506;2022-11-11T05:21:32;35.45;;;20.65;;
53034;SDS011;38923;53.236;6.506;2022-11-11T05:23:58;37.55;;;22.30;;
53034;SDS011;38923;53.236;6.506;2022-11-11T05:26:42;34.92;;;20.92;;
53034;SDS011;38923;53.236;6.506;2022-11-11T05:29:08;36.15;;;22.10;;
53034;SDS011;38923;53.236;6.506;2022-11-11T05:31:33;39.25;;;22.83;;
53034;SDS011;38923;53.236;6.506;2022-11-11T05:33:59;36.75;;;21.98;;
53034;SDS011;38923;53.236;6.506;2022-11-11T05:36:25;31.88;;;21.92;;
53034;SDS011;38923;53.236;6.506;2022-11-11T05:38:51;33.78;;;22.52;;
53034;SDS011;38923;53.236;6.506;2022-11-11T05:41:16;35.63;;;21.52;;
53034;SDS011;38923;53.236;6.506;2022-11-11T05:43:42;35.03;;;20.95;;
53034;SDS011;38923;53.236;6.506;2022-11-11T05:46:08;38.90;;;21.75;;
53034;SDS011;38923;53.236;6.506;2022-11-11T05:48:33;36.50;;;23.60;;
53034;SDS011;38923;53.236;6.506;2022-11-11T05:50:59;35.33;;;22.13;;
53034;SDS011;38923;53.236;6.506;2022-11-11T05:53:25;37.38;;;21.13;;
53034;SDS011;38923;53.236;6.506;2022-11-11T05:55:52;34.25;;;21.65;;
53034;SDS011;38923;53.236;6.506;2022-11-11T05:58:18;37.90;;;21.95;;
53034;SDS011;38923;53.236;6.506;2022-11-11T06:00:44;35.67;;;21.60;;
53034;SDS011;38923;53.236;6.506;2022-11-11T06:03:10;37.55;;;22.30;;
53034;SDS011;38923;53.236;6.506;2022-11-11T06:05:36;38.67;;;23.52;;
53034;SDS011;38923;53.236;6.506;2022-11-11T06:08:02;44.33;;;23.52;;
53034;SDS011;38923;53.236;6.506;2022-11-11T06:10:28;38.55;;;22.80;;
53034;SDS011;38923;53.236;6.506;2022-11-11T06:12:57;34.42;;;21.17;;
53034;SDS011;38923;53.236;6.506;2022-11-11T06:15:26;32.60;;;21.15;;
53034;SDS011;38923;53.236;6.506;2022-11-11T06:17:52;37.15;;;21.77;;
53034;SDS011;38923;53.236;6.506;2022-11-11T06:20:19;39.72;;;22.40;;
53034;SDS011;38923;53.236;6.506;2022-11-11T06:22:44;36.97;;;21.17;;
53034;SDS011;38923;53.236;6.506;2022-11-11T06:25:23;32.78;;;20.42;;
53034;SDS011;38923;53.236;6.506;2022-11-11T06:28:09;34.30;;;20.90;;
53034;SDS011;38923;53.236;6.506;2022-11-11T06:30:34;38.03;;;20.70;;
53034;SDS011;38923;53.236;6.506;2022-11-11T06:33:00;34.90;;;19.98;;
53034;SDS011;38923;53.236;6.506;2022-11-11T06:35:26;33.20;;;20.05;;
53034;SDS011;38923;53.236;6.506;2022-11-11T06:37:52;37.30;;;20.48;;
53034;SDS011;38923;53.236;6.506;2022-11-11T06:40:17;35.28;;;19.98;;
53034;SDS011;38923;53.236;6.506;2022-11-11T06:42:43;33.95;;;20.05;;
53034;SDS011;38923;53.236;6.506;2022-11-11T06:45:09;33.38;;;20.55;;
53034;SDS011;38923;53.236;6.506;2022-11-11T06:47:38;37.75;;;21.05;;
53034;SDS011;38923;53.236;6.506;2022-11-11T06:50:03;40.15;;;21.88;;
53034;SDS011;38923;53.236;6.506;2022-11-11T06:52:29;38.70;;;22.08;;
53034;SDS011;38923;53.236;6.506;2022-11-11T06:54:55;43.72;;;23.20;;
53034;SDS011;38923;53.236;6.506;2022-11-11T06:57:24;34.85;;;22.25;;
53034;SDS011;38923;53.236;6.506;2022-11-11T06:59:49;35.65;;;21.40;;
53034;SDS011;38923;53.236;6.506;2022-11-11T07:02:15;36.45;;;21.10;;
53034;SDS011;38923;53.236;6.506;2022-11-11T07:04:41;43.80;;;22.88;;
53034;SDS011;38923;53.236;6.506;2022-11-11T07:07:06;38.75;;;21.67;;
53034;SDS011;38923;53.236;6.506;2022-11-11T07:09:32;36.63;;;22.17;;
53034;SDS011;38923;53.236;6.506;2022-11-11T07:11:57;39.20;;;22.92;;
53034;SDS011;38923;53.236;6.506;2022-11-11T07:14:23;38.13;;;22.30;;
53034;SDS011;38923;53.236;6.506;2022-11-11T07:16:49;42.35;;;23.73;;
53034;SDS011;38923;53.236;6.506;2022-11-11T07:19:15;35.53;;;22.05;;
53034;SDS011;38923;53.236;6.506;2022-11-11T07:21:40;31.92;;;22.02;;
53034;SDS011;38923;53.236;6.506;2022-11-11T07:24:06;38.38;;;22.45;;
53034;SDS011;38923;53.236;6.506;2022-11-11T07:26:32;42.22;;;22.17;;
53034;SDS011;38923;53.236;6.506;2022-11-11T07:28:58;39.05;;;23.00;;
53034;SDS011;38923;53.236;6.506;2022-11-11T07:31:23;38.13;;;22.40;;
53034;SDS011;38923;53.236;6.506;2022-11-11T07:33:49;36.58;;;21.15;;
53034;SDS011;38923;53.236;6.506;2022-11-11T07:36:14;40.85;;;23.23;;
53034;SDS011;38923;53.236;6.506;2022-11-11T07:38:40;37.97;;;23.80;;
53034;SDS011;38923;53.236;6.506;2022-11-11T07:41:06;38.97;;;23.63;;
53034;SDS011;38923;53.236;6.506;2022-11-11T07:43:32;44.28;;;23.27;;
53034;SDS011;38923;53.236;6.506;2022-11-11T07:45:57;38.05;;;22.52;;
53034;SDS011;38923;53.236;6.506;2022-11-11T07:48:23;38.35;;;22.08;;
53034;SDS011;38923;53.236;6.506;2022-11-11T07:50:50;38.80;;;22.70;;
53034;SDS011;38923;53.236;6.506;2022-11-11T07:53:18;45.50;;;23.35;;
53034;SDS011;38923;53.236;6.506;2022-11-11T07:55:44;32.65;;;21.63;;
53034;SDS011;38923;53.236;6.506;2022-11-11T07:58:10;38.40;;;21.88;;
53034;SDS011;38923;53.236;6.506;2022-11-11T08:00:36;40.22;;;23.85;;
53034;SDS011;38923;53.236;6.506;2022-11-11T08:03:02;36.30;;;22.02;;
53034;SDS011;38923;53.236;6.506;2022-11-11T08:05:28;38.65;;;23.30;;
53034;SDS011;38923;53.236;6.506;2022-11-11T08:07:54;39.05;;;22.45;;
53034;SDS011;38923;53.236;6.506;2022-11-11T08:10:19;36.70;;;21.13;;
53034;SDS011;38923;53.236;6.506;2022-11-11T08:12:45;49.08;;;23.42;;
53034;SDS011;38923;53.236;6.506;2022-11-11T08:15:35;42.63;;;22.88;;
53034;SDS011;38923;53.236;6.506;2022-11-11T08:18:02;37.95;;;22.33;;
53034;SDS011;38923;53.236;6.506;2022-11-11T08:20:27;40.05;;;22.27;;
53034;SDS011;38923;53.236;6.506;2022-11-11T08:22:53;41.50;;;22.75;;
53034;SDS011;38923;53.236;6.506;2022-11-11T08:25:22;34.38;;;21.80;;
53034;SDS011;38923;53.236;6.506;2022-11-11T08:27:48;35.03;;;21.60;;
53034;SDS011;38923;53.236;6.506;2022-11-11T08:30:14;38.40;;;21.58;;
53034;SDS011;38923;53.236;6.506;2022-11-11T08:32:39;39.03;;;22.90;;
53034;SDS011;38923;53.236;6.506;2022-11-11T08:35:05;42.92;;;23.35;;
53034;SDS011;38923;53.236;6.506;2022-11-11T08:37:31;41.42;;;21.42;;
53034;SDS011;38923;53.236;6.506;2022-11-11T08:39:57;38.55;;;20.70;;
53034;SDS011;38923;53.236;6.506;2022-11-11T08:42:23;33.95;;;21.27;;
53034;SDS011;38923;53.236;6.506;2022-11-11T08:44:48;38.65;;;21.67;;
53034;SDS011;38923;53.236;6.506;2022-11-11T08:47:15;38.78;;;21.60;;
53034;SDS011;38923;53.236;6.506;2022-11-11T08:49:41;33.22;;;20.95;;
53034;SDS011;38923;53.236;6.506;2022-11-11T08:52:07;37.25;;;22.27;;
53034;SDS011;38923;53.236;6.506;2022-11-11T08:54:33;33.10;;;21.00;;
53034;SDS011;38923;53.236;6.506;2022-11-11T08:56:59;35.58;;;22.83;;
53034;SDS011;38923;53.236;6.506;2022-11-11T08:59:25;40.92;;;21.75;;
53034;SDS011;38923;53.236;6.506;2022-11-11T09:01:50;39.60;;;21.55;;
53034;SDS011;38923;53.236;6.506;2022-11-11T09:04:17;37.45;;;20.92;;
53034;SDS011;38923;53.236;6.506;2022-11-11T09:06:43;38.00;;;22.88;;
53034;SDS011;38923;53.236;6.506;2022-11-11T09:09:10;34.90;;;20.13;;
53034;SDS011;38923;53.236;6.506;2022-11-11T09:11:35;35.53;;;20.83;;
53034;SDS011;38923;53.236;6.506;2022-11-11T09:14:01;37.17;;;21.17;;
53034;SDS011;38923;53.236;6.506;2022-11-11T09:16:27;38.45;;;21.00;;
53034;SDS011;38923;53.236;6.506;2022-11-11T09:18:52;35.33;;;20.65;;
53034;SDS011;38923;53.236;6.506;2022-11-11T09:21:18;38.33;;;21.33;;
53034;SDS011;38923;53.236;6.506;2022-11-11T09:23:44;36.65;;;20.88;;
53034;SDS011;38923;53.236;6.506;2022-11-11T09:26:10;33.85;;;20.92;;
53034;SDS011;38923;53.236;6.506;2022-11-11T09:28:35;34.42;;;21.33;;
53034;SDS011;38923;53.236;6.506;2022-11-11T09:31:01;37.15;;;21.08;;
53034;SDS011;38923;53.236;6.506;2022-11-11T09:33:27;33.42;;;20.30;;
53034;SDS011;38923;53.236;6.506;2022-11-11T09:35:54;34.50;;;19.70;;
53034;SDS011;38923;53.236;6.506;2022-11-11T09:38:21;32.33;;;20.55;;
53034;SDS011;38923;53.236;6.506;2022-11-11T09:43:51;31.38;;;20.20;;
53034;SDS011;38923;53.236;6.506;2022-11-11T09:49:22;37.30;;;20.20;;
53034;SDS011;38923;53.236;6.506;2022-11-11T09:52:19;36.22;;;20.83;;
53034;SDS011;38923;53.236;6.506;2022-11-11T09:57:38;34.58;;;21.02;;
53034;SDS011;38923;53.236;6.506;2022-11-11T10:00:16;36.78;;;20.52;;
53034;SDS011;38923;53.236;6.506;2022-11-11T10:02:52;33.58;;;19.27;;
53034;SDS011;38923;53.236;6.506;2022-11-11T10:05:25;33.00;;;20.60;;
53034;SDS011;38923;53.236;6.506;2022-11-11T10:10:29;35.08;;;20.52;;
53034;SDS011;38923;53.236;6.506;2022-11-11T10:13:28;35.92;;;21.13;;
53034;SDS011;38923;53.236;6.506;2022-11-11T10:21:31;36.27;;;20.80;;
53034;SDS011;38923;53.236;6.506;2022-11-11T10:24:10;35.05;;;20.77;;
53034;SDS011;38923;53.236;6.506;2022-11-11T10:26:44;37.92;;;21.52;;
53034;SDS011;38923;53.236;6.506;2022-11-11T10:29:21;41.08;;;21.02;;
53034;SDS011;38923;53.236;6.506;2022-11-11T10:31:53;34.83;;;21.60;;
53034;SDS011;38923;53.236;6.506;2022-11-11T10:34:33;33.92;;;20.13;;
53034;SDS011;38923;53.236;6.506;2022-11-11T10:36:59;34.75;;;20.02;;
53034;SDS011;38923;53.236;6.506;2022-11-11T10:39:31;30.25;;;19.58;;
53034;SDS011;38923;53.236;6.506;2022-11-11T10:42:17;37.08;;;21.58;;
53034;SDS011;38923;53.236;6.506;2022-11-11T10:44:43;33.60;;;20.13;;
53034;SDS011;38923;53.236;6.506;2022-11-11T10:47:11;34.75;;;20.65;;
53034;SDS011;38923;53.236;6.506;2022-11-11T10:49:53;33.60;;;19.83;;
53034;SDS011;38923;53.236;6.506;2022-11-11T10:52:28;33.28;;;19.17;;
53034;SDS011;38923;53.236;6.506;2022-11-11T10:57:38;31.52;;;19.70;;
53034;SDS011;38923;53.236;6.506;2022-11-11T11:00:11;34.33;;;18.98;;
53034;SDS011;38923;53.236;6.506;2022-11-11T11:02:46;35.40;;;20.33;;
53034;SDS011;38923;53.236;6.506;2022-11-11T11:08:05;31.25;;;18.55;;
53034;SDS011;38923;53.236;6.506;2022-11-11T11:10:57;29.52;;;18.27;;
53034;SDS011;38923;53.236;6.506;2022-11-11T11:16:13;29.00;;;17.85;;
53034;SDS011;38923;53.236;6.506;2022-11-11T11:18:43;29.85;;;18.50;;
53034;SDS011;38923;53.236;6.506;2022-11-11T11:21:09;28.67;;;18.08;;
53034;SDS011;38923;53.236;6.506;2022-11-11T11:23:41;32.25;;;17.20;;
53034;SDS011;38923;53.236;6.506;2022-11-11T11:28:35;26.42;;;17.45;;
53034;SDS011;38923;53.236;6.506;2022-11-11T11:31:36;28.77;;;16.77;;
53034;SDS011;38923;53.236;6.506;2022-11-11T11:34:07;27.02;;;18.40;;
53034;SDS011;38923;53.236;6.506;2022-11-11T11:36:33;26.33;;;18.00;;
53034;SDS011;38923;53.236;6.506;2022-11-11T11:38:58;28.63;;;18.05;;
53034;SDS011;38923;53.236;6.506;2022-11-11T11:41:36;29.58;;;17.30;;
53034;SDS011;38923;53.236;6.506;2022-11-11T11:44:23;24.80;;;16.63;;
53034;SDS011;38923;53.236;6.506;2022-11-11T11:53:14;24.77;;;17.00;;
53034;SDS011;38923;53.236;6.506;2022-11-11T11:55:53;26.17;;;16.23;;
53034;SDS011;38923;53.236;6.506;2022-11-11T11:58:52;25.77;;;17.00;;
53034;SDS011;38923;53.236;6.506;2022-11-11T12:11:34;30.10;;;17.20;;
53034;SDS011;38923;53.236;6.506;2022-11-11T12:17:04;22.80;;;15.85;;
53034;SDS011;38923;53.236;6.506;2022-11-11T12:20:18;23.20;;;14.95;;
53034;SDS011;38923;53.236;6.506;2022-11-11T12:22:35;25.80;;;16.30;;
53034;SDS011;38923;53.236;6.506;2022-11-11T12:30:20;26.25;;;16.17;;
53034;SDS011;38923;53.236;6.506;2022-11-11T12:35:48;25.85;;;15.52;;
53034;SDS011;38923;53.236;6.506;2022-11-11T12:38:35;24.58;;;15.40;;
53034;SDS011;38923;53.236;6.506;2022-11-11T12:41:29;22.55;;;13.80;;
53034;SDS011;38923;53.236;6.506;2022-11-11T12:44:06;20.80;;;13.75;;
53034;SDS011;38923;53.236;6.506;2022-11-11T12:58:07;21.30;;;12.82;;
53034;SDS011;38923;53.236;6.506;2022-11-11T13:00:53;20.10;;;13.50;;
53034;SDS011;38923;53.236;6.506;2022-11-11T13:06:19;21.70;;;13.23;;
53034;SDS011;38923;53.236;6.506;2022-11-11T13:17:17;25.35;;;16.00;;
53034;SDS011;38923;53.236;6.506;2022-11-11T13:19:55;23.80;;;14.80;;
53034;SDS011;38923;53.236;6.506;2022-11-11T13:22:25;22.90;;;14.98;;
53034;SDS011;38923;53.236;6.506;2022-11-11T13:24:55;27.85;;;15.70;;
53034;SDS011;38923;53.236;6.506;2022-11-11T13:33:15;27.90;;;16.73;;
53034;SDS011;38923;53.236;6.506;2022-11-11T13:38:38;29.13;;;18.23;;
53034;SDS011;38923;53.236;6.506;2022-11-11T13:41:18;28.85;;;17.40;;
53034;SDS011;38923;53.236;6.506;2022-11-11T13:43:52;29.75;;;18.02;;
53034;SDS011;38923;53.236;6.506;2022-11-11T13:46:38;27.55;;;17.05;;
53034;SDS011;38923;53.236;6.506;2022-11-11T13:49:56;27.55;;;16.88;;
53034;SDS011;38923;53.236;6.506;2022-11-11T13:52:26;28.63;;;17.35;;
53034;SDS011;38923;53.236;6.506;2022-11-11T13:55:06;26.73;;;17.48;;
53034;SDS011;38923;53.236;6.506;2022-11-11T13:57:46;30.08;;;17.63;;
53034;SDS011;38923;53.236;6.506;2022-11-11T14:02:41;28.10;;;17.83;;
53034;SDS011;38923;53.236;6.506;2022-11-11T14:10:55;28.67;;;17.42;;
53034;SDS011;38923;53.236;6.506;2022-11-11T14:15:48;30.10;;;18.50;;
53034;SDS011;38923;53.236;6.506;2022-11-11T14:20:43;29.52;;;17.98;;
53034;SDS011;38923;53.236;6.506;2022-11-11T14:25:49;31.25;;;17.83;;
53034;SDS011;38923;53.236;6.506;2022-11-11T14:30:51;26.17;;;17.25;;
53034;SDS011;38923;53.236;6.506;2022-11-11T14:33:20;31.40;;;18.70;;
53034;SDS011;38923;53.236;6.506;2022-11-11T14:38:17;26.15;;;17.55;;
53034;SDS011;38923;53.236;6.506;2022-11-11T14:40:53;28.50;;;16.92;;
53034;SDS011;38923;53.236;6.506;2022-11-11T14:43:32;33.80;;;18.10;;
53034;SDS011;38923;53.236;6.506;2022-11-11T14:46:00;28.02;;;17.10;;
53034;SDS011;38923;53.236;6.506;2022-11-11T14:48:50;29.02;;;18.13;;
53034;SDS011;38923;53.236;6.506;2022-11-11T14:54:19;27.80;;;17.42;;
53034;SDS011;38923;53.236;6.506;2022-11-11T14:57:06;24.67;;;16.95;;
53034;SDS011;38923;53.236;6.506;2022-11-11T14:59:39;28.42;;;17.33;;
53034;SDS011;38923;53.236;6.506;2022-11-11T15:02:06;26.10;;;17.52;;
53034;SDS011;38923;53.236;6.506;2022-11-11T15:04:41;28.33;;;17.35;;
53034;SDS011;38923;53.236;6.506;2022-11-11T15:07:13;27.92;;;17.45;;
53034;SDS011;38923;53.236;6.506;2022-11-11T15:10:02;30.17;;;18.25;;
53034;SDS011;38923;53.236;6.506;2022-11-11T15:12:37;28.30;;;17.98;;
53034;SDS011;38923;53.236;6.506;2022-11-11T15:18:43;26.70;;;17.58;;
53034;SDS011;38923;53.236;6.506;2022-11-11T15:21:31;29.13;;;17.27;;
53034;SDS011;38923;53.236;6.506;2022-11-11T15:38:17;28.60;;;17.80;;
53034;SDS011;38923;53.236;6.506;2022-11-11T15:40:45;31.55;;;17.00;;
53034;SDS011;38923;53.236;6.506;2022-11-11T15:43:18;31.02;;;18.63;;
53034;SDS011;38923;53.236;6.506;2022-11-11T15:45:49;30.73;;;18.55;;
53034;SDS011;38923;53.236;6.506;2022-11-11T15:48:22;29.90;;;17.80;;
53034;SDS011;38923;53.236;6.506;2022-11-11T15:50:54;28.15;;;16.63;;
53034;SDS011;38923;53.236;6.506;2022-11-11T15:53:24;27.83;;;17.73;;
53034;SDS011;38923;53.236;6.506;2022-11-11T15:55:55;28.02;;;17.30;;
53034;SDS011;38923;53.236;6.506;2022-11-11T15:58:29;30.70;;;18.33;;
53034;SDS011;38923;53.236;6.506;2022-11-11T16:00:56;29.33;;;18.10;;
53034;SDS011;38923;53.236;6.506;2022-11-11T16:03:39;26.40;;;17.05;;
53034;SDS011;38923;53.236;6.506;2022-11-11T16:06:13;33.30;;;19.40;;
53034;SDS011;38923;53.236;6.506;2022-11-11T16:09:26;26.33;;;17.38;;
53034;SDS011;38923;53.236;6.506;2022-11-11T16:11:54;29.00;;;18.25;;
53034;SDS011;38923;53.236;6.506;2022-11-11T16:14:24;30.83;;;18.25;;
53034;SDS011;38923;53.236;6.506;2022-11-11T16:17:02;27.08;;;18.02;;
53034;SDS011;38923;53.236;6.506;2022-11-11T16:19:35;29.17;;;19.05;;
53034;SDS011;38923;53.236;6.506;2022-11-11T16:22:15;28.25;;;17.17;;
53034;SDS011;38923;53.236;6.506;2022-11-11T16:24:44;30.13;;;18.98;;
53034;SDS011;38923;53.236;6.506;2022-11-11T16:27:24;32.22;;;18.77;;
53034;SDS011;38923;53.236;6.506;2022-11-11T16:29:53;32.08;;;20.13;;
53034;SDS011;38923;53.236;6.506;2022-11-11T16:34:47;34.13;;;20.08;;
53034;SDS011;38923;53.236;6.506;2022-11-11T16:37:14;33.55;;;20.13;;
53034;SDS011;38923;53.236;6.506;2022-11-11T16:39:41;28.48;;;18.70;;
53034;SDS011;38923;53.236;6.506;2022-11-11T16:42:29;31.92;;;19.67;;
53034;SDS011;38923;53.236;6.506;2022-11-11T16:45:02;29.10;;;18.42;;
53034;SDS011;38923;53.236;6.506;2022-11-11T16:50:06;32.05;;;19.67;;
53034;SDS011;38923;53.236;6.506;2022-11-11T16:53:05;33.15;;;19.83;;
53034;SDS011;38923;53.236;6.506;2022-11-11T16:57:59;35.45;;;20.40;;
53034;SDS011;38923;53.236;6.506;2022-11-11T17:00:47;30.48;;;18.63;;
53034;SDS011;38923;53.236;6.506;2022-11-11T17:03:23;35.47;;;20.77;;
53034;SDS011;38923;53.236;6.506;2022-11-11T17:05:55;29.42;;;19.13;;
53034;SDS011;38923;53.236;6.506;2022-11-11T17:11:05;30.58;;;19.52;;
53034;SDS011;38923;53.236;6.506;2022-11-11T17:13:33;31.45;;;19.45;;